createdAt,value
2023-02-22T00:04:09.656Z,38.4
2023-02-22T00:10:14.656Z,38.4
2023-02-22T00:16:20.081Z,38.4
2023-02-22T00:22:25.794Z,38.3
2023-02-22T00:28:31.161Z,38.3
2023-02-22T00:34:36.525Z,38.5
2023-02-22T00:40:41.450Z,38.3
2023-02-22T00:46:47.463Z,38.3
2023-02-22T00:52:52.571Z,38.4
2023-02-22T00:58:57.934Z,38.3
2023-02-22T01:05:03.938Z,38.3
2023-02-22T01:11:09.355Z,38.4
2023-02-22T01:17:14.644Z,38.4
2023-02-22T01:23:20.213Z,38.4
2023-02-22T01:29:25.458Z,38.3
2023-02-22T01:35:30.957Z,38.3
2023-02-22T01:41:36.518Z,38.4
2023-02-22T01:47:41.886Z,38.3
2023-02-22T01:53:46.873Z,38.5
2023-02-22T01:59:51.851Z,38.4
2023-02-22T02:05:57.349Z,38.5
2023-02-22T02:12:02.674Z,38.4
2023-02-22T02:18:08.148Z,38.4
2023-02-22T02:24:13.545Z,38.4
2023-02-22T02:30:18.932Z,38.5
2023-02-22T02:36:24.916Z,38.5
2023-02-22T02:42:30.237Z,38.4
2023-02-22T02:48:35.399Z,38.5
2023-02-22T02:54:40.566Z,38.5
2023-02-22T03:00:45.755Z,38.5
2023-02-22T03:06:50.927Z,38.5
2023-02-22T03:12:56.286Z,38.4
2023-02-22T03:19:01.651Z,38.5
2023-02-22T03:25:06.795Z,38.5
2023-02-22T03:31:12.403Z,38.6
2023-02-22T03:37:18.134Z,38.5
2023-02-22T03:43:23.081Z,38.5
2023-02-22T03:49:28.672Z,38.5
2023-02-22T03:55:33.640Z,38.5
2023-02-22T04:01:38.807Z,38.5
2023-02-22T04:07:43.979Z,38.6
2023-02-22T04:13:48.943Z,38.5
2023-02-22T04:19:53.886Z,38.5
2023-02-22T04:25:59.018Z,38.5
2023-02-22T04:32:04.557Z,38.5
2023-02-22T04:38:10.377Z,38.6
2023-02-22T04:44:15.359Z,38.5
2023-02-22T04:50:20.692Z,38.5
2023-02-22T04:56:26.285Z,38.5
2023-02-22T05:02:31.254Z,38.3
2023-02-22T05:08:36.205Z,37.4
2023-02-22T05:14:41.695Z,37.2
2023-02-22T05:20:46.938Z,37.1
2023-02-22T05:26:52.294Z,37
2023-02-22T05:32:57.480Z,36.9
2023-02-22T05:39:02.538Z,36.9
2023-02-22T05:45:07.603Z,37
2023-02-22T05:51:13.583Z,36.9
2023-02-22T05:57:18.747Z,37
2023-02-22T06:03:23.881Z,36.9
2023-02-22T06:09:28.661Z,36.8
2023-02-22T06:15:33.975Z,36.7
2023-02-22T06:21:39.365Z,36.7
2023-02-22T06:27:44.756Z,36.7
2023-02-22T06:33:49.705Z,36.7
2023-02-22T06:39:54.843Z,36.7
2023-02-22T06:46:00.313Z,36.8
2023-02-22T06:52:06.449Z,36.8
2023-02-22T06:58:11.803Z,36.8
2023-02-22T07:04:17.265Z,36.8
2023-02-22T07:10:22.343Z,36.8
2023-02-22T07:16:28.114Z,36.9
2023-02-22T07:22:33.593Z,36.9
2023-02-22T07:28:38.602Z,37
2023-02-22T07:34:44.341Z,37.1
2023-02-22T07:40:50.513Z,37.2
2023-02-22T07:46:55.542Z,37.2
2023-02-22T07:53:01.145Z,37.1
2023-02-22T07:59:06.492Z,37.1
2023-02-22T08:05:12.077Z,37.1
2023-02-22T08:11:18.226Z,37
2023-02-22T08:17:23.778Z,36.8
2023-02-22T08:23:28.956Z,36.8
2023-02-22T08:29:34.514Z,36.7
2023-02-22T08:35:39.842Z,36.7
2023-02-22T08:41:45.074Z,36.6
2023-02-22T08:47:50.465Z,36.6
2023-02-22T08:53:56.643Z,36.6
2023-02-22T09:00:02.106Z,36.6
2023-02-22T09:06:07.379Z,36.7
2023-02-22T09:12:12.916Z,36.7
2023-02-22T09:18:18.025Z,36.7
2023-02-22T09:24:23.074Z,36.7
2023-02-22T09:30:28.622Z,36.7
2023-02-22T09:36:34.341Z,36.7
2023-02-22T09:42:39.891Z,36.7
2023-02-22T09:48:45.244Z,36.7
2023-02-22T09:54:50.699Z,36.8
2023-02-22T10:00:55.674Z,36.8
2023-02-22T10:07:00.778Z,36.7
2023-02-22T10:13:06.310Z,36.8
2023-02-22T10:19:11.358Z,36.8
2023-02-22T10:25:16.318Z,36.8
2023-02-22T10:31:22.369Z,36.8
2023-02-22T10:37:28.287Z,36.8
2023-02-22T10:43:33.850Z,36.8
2023-02-22T10:49:39.024Z,36.7
2023-02-22T10:55:44.827Z,36.7
2023-02-22T11:01:50.181Z,36.7
2023-02-22T11:07:55.949Z,36.7
2023-02-22T11:14:01.115Z,36.7
2023-02-22T11:20:07.001Z,36.7
2023-02-22T11:26:12.622Z,36.7
2023-02-22T11:32:18.262Z,36.8
2023-02-22T11:38:23.507Z,36.8
2023-02-22T11:44:28.865Z,36.8
2023-02-22T11:50:34.262Z,36.8
2023-02-22T11:56:41.617Z,36.8
2023-02-22T12:02:59.405Z,36.8
2023-02-22T12:09:04.872Z,36.9
2023-02-22T12:15:10.330Z,36.9
2023-02-22T12:21:16.082Z,36.9
2023-02-22T12:27:21.918Z,36.9
2023-02-22T12:33:27.061Z,36.9
2023-02-22T12:39:36.216Z,36.9
2023-02-22T12:45:46.507Z,36.9
2023-02-22T12:51:51.995Z,37
2023-02-22T12:57:57.330Z,36.9
2023-02-22T13:04:20.802Z,36.9
2023-02-22T13:10:27.021Z,36.9
2023-02-22T13:16:32.185Z,36.9
2023-02-22T13:22:37.577Z,36.9
2023-02-22T13:28:43.550Z,37
2023-02-22T13:34:48.965Z,36.9
2023-02-22T13:40:54.468Z,37
2023-02-22T13:47:00.248Z,37.2
2023-02-22T13:53:05.824Z,37.2
2023-02-22T13:59:11.385Z,37.2
2023-02-22T14:05:17.044Z,37.3
2023-02-22T14:11:22.205Z,37.4
2023-02-22T14:17:27.380Z,37.5
2023-02-22T14:23:32.714Z,37.4
2023-02-22T14:29:38.032Z,37.5
2023-02-22T14:35:52.500Z,37.5
2023-02-22T14:41:58.019Z,37.5
2023-02-22T14:48:03.760Z,37.6
2023-02-22T14:54:09.513Z,37.6
2023-02-22T15:00:15.302Z,37.6
2023-02-22T15:06:20.746Z,37.7
2023-02-22T15:12:25.507Z,37.7
2023-02-22T15:18:30.474Z,37.8
2023-02-22T15:24:35.621Z,37.8
2023-02-22T15:30:40.934Z,37.9
2023-02-22T15:36:45.955Z,37.9
2023-02-22T15:42:51.429Z,37.9
2023-02-22T15:48:56.613Z,38
2023-02-22T15:55:01.303Z,37.9
2023-02-22T16:01:06.351Z,38
2023-02-22T16:07:12.149Z,37.9
2023-02-22T16:13:33.737Z,37.9
2023-02-22T16:19:40.714Z,37.9
2023-02-22T16:25:47.280Z,37.9
2023-02-22T16:31:52.581Z,37.7
2023-02-22T16:37:58.047Z,37.7
2023-02-22T16:44:03.491Z,37.6
2023-02-22T16:50:09.188Z,37.5
2023-02-22T16:56:14.627Z,37.3
2023-02-22T17:02:19.913Z,37.3
2023-02-22T17:08:25.229Z,37.2
2023-02-22T17:14:31.394Z,37.2
2023-02-22T17:20:36.418Z,37.2
2023-02-22T17:26:41.980Z,37.1
2023-02-22T17:32:47.337Z,37.1
2023-02-22T17:38:53.182Z,37.1
2023-02-22T17:44:58.654Z,37.1
2023-02-22T17:51:04.103Z,37.1
2023-02-22T17:57:09.176Z,37.1
2023-02-22T18:03:15.025Z,37.1
2023-02-22T18:09:20.782Z,37.1
2023-02-22T18:15:26.366Z,37
2023-02-22T18:21:31.731Z,37.1
2023-02-22T18:27:37.443Z,37.1
2023-02-22T18:33:42.808Z,37.1
2023-02-22T18:39:48.260Z,37.1
2023-02-22T18:45:53.629Z,37.1
2023-02-22T18:51:58.595Z,37.2
2023-02-22T18:58:03.768Z,37.2
2023-02-22T19:04:09.085Z,37.2
2023-02-22T19:10:14.610Z,37.2
2023-02-22T19:16:21.184Z,37.2
2023-02-22T19:22:27.243Z,37.2
2023-02-22T19:28:33.070Z,37.2
2023-02-22T19:34:38.398Z,37.2
2023-02-22T19:40:43.580Z,37.2
2023-02-22T19:46:50.798Z,37.3
2023-02-22T19:52:56.539Z,37.3
2023-02-22T19:59:02.243Z,37.3
2023-02-22T20:05:08.222Z,37.3
2023-02-22T20:11:13.657Z,37.4
2023-02-22T20:17:19.176Z,37.4
2023-02-22T20:23:23.832Z,37.4
2023-02-22T20:29:29.327Z,37.4
2023-02-22T20:35:34.680Z,37.4
2023-02-22T20:41:40.438Z,37.4
2023-02-22T20:47:46.227Z,37.4
2023-02-22T20:53:51.632Z,37.4
2023-02-22T20:59:57.049Z,37.4
2023-02-22T21:06:02.322Z,37.4
2023-02-22T21:12:07.878Z,37.5
2023-02-22T21:18:13.679Z,37.5
2023-02-22T21:24:19.041Z,37.5
2023-02-22T21:30:24.609Z,37.5
2023-02-22T21:36:30.089Z,37.5
2023-02-22T21:42:35.349Z,37.6
2023-02-22T21:48:40.176Z,37.6
2023-02-22T21:54:44.944Z,37.6
2023-02-22T22:00:50.053Z,37.6
2023-02-22T22:06:55.428Z,37.7
2023-02-22T22:13:01.134Z,37.7
2023-02-22T22:19:06.552Z,37.7
2023-02-22T22:25:11.516Z,37.7
2023-02-22T22:31:17.672Z,37.8
2023-02-22T22:37:23.282Z,37.8
2023-02-22T22:43:28.659Z,37.8
2023-02-22T22:49:34.790Z,37.9
2023-02-22T22:55:40.608Z,37.9
2023-02-22T23:01:45.601Z,38
2023-02-22T23:07:51.181Z,38
2023-02-22T23:13:56.546Z,38
2023-02-22T23:20:02.493Z,38.1
2023-02-22T23:26:07.693Z,38.2
2023-02-22T23:32:14.025Z,38.2
2023-02-22T23:38:19.421Z,38.3
2023-02-22T23:44:24.570Z,38.3
2023-02-22T23:50:30.090Z,38.5
2023-02-22T23:56:35.096Z,38.4
